Time;durP1;ratioP1;P1;durP2;ratioP2;P2;SDS_P1;SDS_P2;PMS_P1;PMS_P2;Temp;Humidity;BMP_temperature;BMP_pressure;BME280_temperature;BME280_humidity;BME280_pressure;Samples;Min_cycle;Max_cycle;Signal;HPM_P1;HPM_P2
2022/11/25 00:01:33;;;;;;;0.70;0.60;;;;;;;;;;5026337;28;20447;-71
2022/11/25 00:04:01;;;;;;;0.70;0.60;;;;;;;;;;5028599;28;20461;-73
2022/11/25 00:06:29;;;;;;;0.60;0.60;;;;;;;;;;5007623;28;20464;-71
2022/11/25 00:08:57;;;;;;;0.60;0.60;;;;;;;;;;5013731;28;20532;-73
2022/11/25 00:11:24;;;;;;;0.70;0.60;;;;;;;;;;5029325;28;20514;-72
2022/11/25 00:13:52;;;;;;;0.60;0.60;;;;;;;;;;5025482;28;20497;-74
2022/11/25 00:16:20;;;;;;;0.80;0.80;;;;;;;;;;5003954;28;20429;-73
2022/11/25 00:18:48;;;;;;;0.60;0.60;;;;;;;;;;5029312;28;20449;-72
2022/11/25 00:21:16;;;;;;;0.60;0.60;;;;;;;;;;5013885;28;20438;-73
2022/11/25 00:23:48;;;;;;;0.60;0.60;;;;;;;;;;5029425;28;20470;-71
2022/11/25 00:26:15;;;;;;;0.70;0.70;;;;;;;;;;5013329;28;20538;-72
2022/11/25 00:28:43;;;;;;;0.77;0.77;;;;;;;;;;5030065;28;20466;-72
2022/11/25 00:31:10;;;;;;;0.60;0.60;;;;;;;;;;4979919;28;20969;-73
2022/11/25 00:33:38;;;;;;;0.60;0.60;;;;;;;;;;5027273;28;20450;-72
2022/11/25 00:36:09;;;;;;;0.60;0.60;;;;;;;;;;5026206;28;20465;-72
2022/11/25 00:38:37;;;;;;;0.60;0.50;;;;;;;;;;5027457;28;20485;-72
2022/11/25 00:46:34;;;;;;;0.70;0.60;;;;;;;;;;5012733;28;20469;-72
2022/11/25 00:49:01;;;;;;;0.60;0.60;;;;;;;;;;4985065;28;20448;-71
2022/11/25 00:51:29;;;;;;;0.70;0.63;;;;;;;;;;5028211;28;20563;-75
2022/11/25 00:53:57;;;;;;;2.30;2.10;;;;;;;;;;5005698;28;20459;-74
2022/11/25 00:56:24;;;;;;;0.60;0.60;;;;;;;;;;5002341;28;20438;-73
2022/11/25 00:58:53;;;;;;;0.67;0.60;;;;;;;;;;5012311;28;20449;-74
2022/11/25 01:01:21;;;;;;;0.63;0.63;;;;;;;;;;4983971;28;20456;-73
2022/11/25 01:03:48;;;;;;;0.70;0.70;;;;;;;;;;5013026;28;20559;-72
2022/11/25 01:06:15;;;;;;;0.73;0.73;;;;;;;;;;5029131;28;20441;-74
2022/11/25 01:08:44;;;;;;;0.70;0.70;;;;;;;;;;5028321;28;20453;-74
2022/11/25 01:11:12;;;;;;;0.60;0.60;;;;;;;;;;5011842;28;20799;-73
2022/11/25 01:13:41;;;;;;;0.60;0.60;;;;;;;;;;5011373;28;20537;-74
2022/11/25 01:16:10;;;;;;;0.70;0.70;;;;;;;;;;5011694;28;21020;-74
2022/11/25 01:18:37;;;;;;;0.63;0.60;;;;;;;;;;5004156;28;20438;-73
2022/11/25 01:21:04;;;;;;;2.17;2.03;;;;;;;;;;5024420;28;20474;-74
2022/11/25 01:23:31;;;;;;;0.63;0.60;;;;;;;;;;5028562;28;20468;-72
2022/11/25 01:26:00;;;;;;;0.60;0.60;;;;;;;;;;5011235;28;20437;-74
2022/11/25 01:28:28;;;;;;;0.70;0.70;;;;;;;;;;5012279;28;20583;-73
2022/11/25 01:30:59;;;;;;;0.70;0.70;;;;;;;;;;5011410;28;20838;-74
2022/11/25 01:33:26;;;;;;;0.63;0.60;;;;;;;;;;5008718;28;20874;-73
2022/11/25 01:35:53;;;;;;;0.60;0.60;;;;;;;;;;5002873;28;20475;-72
2022/11/25 01:38:20;;;;;;;0.70;0.60;;;;;;;;;;5024600;28;20455;-74
2022/11/25 01:40:47;;;;;;;1.23;1.10;;;;;;;;;;5010575;28;20497;-74
2022/11/25 01:43:15;;;;;;;0.70;0.60;;;;;;;;;;5027013;28;21029;-73
2022/11/25 01:45:44;;;;;;;0.60;0.60;;;;;;;;;;5005303;28;20531;-73
2022/11/25 01:48:13;;;;;;;0.60;0.60;;;;;;;;;;5011971;28;20484;-73
2022/11/25 01:50:41;;;;;;;0.70;0.60;;;;;;;;;;5011887;28;20944;-74
2022/11/25 01:53:09;;;;;;;0.80;0.80;;;;;;;;;;5005021;28;20448;-73
2022/11/25 01:55:38;;;;;;;0.60;0.60;;;;;;;;;;4999263;28;20479;-72
2022/11/25 01:58:06;;;;;;;0.70;0.60;;;;;;;;;;5012595;28;20460;-72
2022/11/25 02:00:33;;;;;;;0.67;0.67;;;;;;;;;;5022152;28;20541;-72
2022/11/25 02:03:01;;;;;;;0.70;0.60;;;;;;;;;;5024773;28;20464;-73
2022/11/25 02:05:32;;;;;;;0.60;0.60;;;;;;;;;;5008553;28;20442;-73
2022/11/25 02:08:00;;;;;;;0.60;0.60;;;;;;;;;;5027747;28;20475;-72
2022/11/25 02:10:28;;;;;;;0.70;0.70;;;;;;;;;;5027850;28;20442;-74
2022/11/25 02:12:56;;;;;;;0.70;0.60;;;;;;;;;;4999776;28;20519;-72
2022/11/25 02:15:24;;;;;;;0.70;0.60;;;;;;;;;;5010882;28;20444;-74
2022/11/25 02:17:54;;;;;;;0.60;0.60;;;;;;;;;;5024196;28;20483;-73
2022/11/25 02:20:25;;;;;;;0.60;0.60;;;;;;;;;;5002724;28;20435;-73
2022/11/25 02:23:01;;;;;;;0.67;0.60;;;;;;;;;;5025695;28;20448;-74
2022/11/25 02:25:39;;;;;;;0.70;0.70;;;;;;;;;;5025405;28;20892;-72
2022/11/25 02:28:32;;;;;;;0.60;0.60;;;;;;;;;;5024347;28;20488;-73
2022/11/25 02:31:03;;;;;;;0.70;0.70;;;;;;;;;;5025435;28;20487;-72
2022/11/25 02:33:35;;;;;;;0.70;0.60;;;;;;;;;;5010278;28;20903;-74
2022/11/25 02:36:06;;;;;;;0.80;0.73;;;;;;;;;;4990885;28;20463;-74
2022/11/25 02:38:36;;;;;;;0.60;0.60;;;;;;;;;;5026818;28;20575;-74
2022/11/25 02:41:10;;;;;;;0.60;0.60;;;;;;;;;;5023784;28;20561;-73
2022/11/25 02:43:43;;;;;;;0.70;0.70;;;;;;;;;;5008203;28;20488;-73
2022/11/25 02:46:16;;;;;;;0.70;0.70;;;;;;;;;;5008427;28;20454;-75
2022/11/25 02:48:54;;;;;;;0.70;0.60;;;;;;;;;;5004849;28;20829;-74
2022/11/25 02:51:46;;;;;;;0.60;0.60;;;;;;;;;;5024535;28;20456;-74
2022/11/25 02:54:23;;;;;;;0.60;0.60;;;;;;;;;;5003746;28;20488;-73
2022/11/25 02:56:51;;;;;;;0.60;0.60;;;;;;;;;;5026345;28;20444;-73
2022/11/25 02:59:19;;;;;;;0.60;0.60;;;;;;;;;;5025849;28;21075;-73
2022/11/25 03:01:47;;;;;;;0.60;0.60;;;;;;;;;;5025112;28;20451;-73
2022/11/25 03:04:15;;;;;;;0.60;0.60;;;;;;;;;;5001726;28;20959;-72
2022/11/25 03:06:44;;;;;;;0.70;0.70;;;;;;;;;;5007910;28;20453;-73
2022/11/25 03:09:14;;;;;;;0.70;0.60;;;;;;;;;;4991260;28;21025;-72
2022/11/25 03:14:39;;;;;;;0.60;0.60;;;;;;;;;;5014577;28;20502;-73
2022/11/25 03:17:09;;;;;;;0.70;0.70;;;;;;;;;;5009824;28;20447;-71
2022/11/25 03:19:42;;;;;;;0.60;0.60;;;;;;;;;;5015377;28;20455;-70
2022/11/25 03:22:16;;;;;;;0.70;0.70;;;;;;;;;;5014103;28;20432;-74
2022/11/25 03:24:50;;;;;;;2.70;2.50;;;;;;;;;;5011134;28;20451;-73
2022/11/25 03:27:20;;;;;;;0.80;0.80;;;;;;;;;;5008641;28;21015;-73
2022/11/25 03:29:55;;;;;;;0.70;0.60;;;;;;;;;;5030437;28;20479;-71
2022/11/25 03:32:23;;;;;;;0.60;0.60;;;;;;;;;;5003941;28;20461;-73
2022/11/25 03:34:55;;;;;;;0.70;0.60;;;;;;;;;;5028715;28;20449;-74
2022/11/25 03:37:26;;;;;;;0.67;0.60;;;;;;;;;;5014911;28;20815;-72
2022/11/25 03:39:58;;;;;;;1.13;1.03;;;;;;;;;;5014310;28;20468;-73
2022/11/25 03:42:34;;;;;;;0.70;0.70;;;;;;;;;;5029127;28;20544;-73
2022/11/25 03:45:07;;;;;;;0.73;0.73;;;;;;;;;;5002009;28;20520;-72
2022/11/25 03:47:37;;;;;;;0.70;0.70;;;;;;;;;;5013351;28;20461;-74
2022/11/25 03:50:08;;;;;;;0.70;0.70;;;;;;;;;;5026458;28;20548;-74
2022/11/25 03:52:40;;;;;;;0.67;0.60;;;;;;;;;;4999081;28;20598;-71
2022/11/25 03:55:15;;;;;;;0.70;0.60;;;;;;;;;;5011934;28;20453;-72
2022/11/25 03:57:46;;;;;;;0.60;0.60;;;;;;;;;;5012850;28;20559;-73
2022/11/25 04:00:17;;;;;;;0.70;0.60;;;;;;;;;;5012108;28;20812;-76
2022/11/25 04:02:51;;;;;;;0.70;0.70;;;;;;;;;;5006017;28;20457;-73
2022/11/25 04:05:21;;;;;;;0.70;0.70;;;;;;;;;;5002834;28;20970;-73
2022/11/25 04:07:48;;;;;;;0.70;0.70;;;;;;;;;;5010391;28;20565;-73
2022/11/25 04:10:23;;;;;;;0.70;0.70;;;;;;;;;;5028379;28;20547;-73
2022/11/25 04:12:52;;;;;;;0.70;0.70;;;;;;;;;;5012028;28;20851;-73
2022/11/25 04:15:25;;;;;;;0.70;0.60;;;;;;;;;;5009954;28;20495;-73
2022/11/25 04:17:55;;;;;;;0.70;0.67;;;;;;;;;;5004998;28;20442;-74
2022/11/25 04:20:23;;;;;;;0.70;0.70;;;;;;;;;;5012316;28;20870;-73
2022/11/25 04:22:57;;;;;;;1.57;0.87;;;;;;;;;;5003393;28;20981;-75
2022/11/25 04:25:25;;;;;;;0.70;0.70;;;;;;;;;;5028551;28;20449;-73
2022/11/25 04:27:54;;;;;;;0.70;0.70;;;;;;;;;;5029526;28;21008;-73
2022/11/25 04:30:28;;;;;;;0.70;0.70;;;;;;;;;;5025627;28;20463;-73
2022/11/25 04:32:55;;;;;;;0.70;0.70;;;;;;;;;;4997137;28;20463;-75
2022/11/25 04:35:22;;;;;;;0.70;0.70;;;;;;;;;;5026939;28;20665;-73
2022/11/25 04:37:52;;;;;;;0.70;0.70;;;;;;;;;;5010444;28;20450;-74
2022/11/25 04:40:21;;;;;;;0.67;0.60;;;;;;;;;;5010065;28;20455;-74
2022/11/25 04:42:56;;;;;;;0.70;0.70;;;;;;;;;;5025547;28;20565;-73
2022/11/25 04:45:33;;;;;;;0.70;0.70;;;;;;;;;;5009391;28;20488;-73
2022/11/25 04:48:21;;;;;;;0.70;0.60;;;;;;;;;;4996263;28;20817;-72
2022/11/25 04:50:50;;;;;;;0.70;0.70;;;;;;;;;;5026850;28;20445;-73
2022/11/25 04:53:17;;;;;;;1.90;1.80;;;;;;;;;;5026798;28;20983;-74
2022/11/25 04:55:44;;;;;;;0.80;0.80;;;;;;;;;;5011701;28;20445;-75
2022/11/25 04:59:38;;;;;;;0.60;0.60;;;;;;;;;;5028433;28;20825;-72
2022/11/25 05:01:04;;;;;;;0.67;0.60;;;;;;;;;;5002624;28;20548;-73
2022/11/25 05:03:36;;;;;;;0.70;0.60;;;;;;;;;;5028834;28;20483;-73
2022/11/25 05:06:05;;;;;;;0.70;0.70;;;;;;;;;;5003712;28;20463;-73
2022/11/25 05:08:31;;;;;;;0.70;0.67;;;;;;;;;;5028665;28;20475;-73
2022/11/25 05:10:59;;;;;;;0.60;0.60;;;;;;;;;;5027610;28;20457;-73
2022/11/25 05:13:26;;;;;;;0.60;0.60;;;;;;;;;;5011166;28;20472;-74
2022/11/25 05:15:53;;;;;;;0.70;0.70;;;;;;;;;;5026922;28;20539;-74
2022/11/25 05:18:23;;;;;;;0.60;0.60;;;;;;;;;;4986785;28;20443;-74
2022/11/25 05:20:50;;;;;;;0.80;0.80;;;;;;;;;;5011429;28;20421;-74
2022/11/25 05:23:19;;;;;;;0.60;0.60;;;;;;;;;;5026423;28;20453;-74
2022/11/25 05:25:47;;;;;;;0.70;0.70;;;;;;;;;;5028378;28;20501;-73
2022/11/25 05:28:25;;;;;;;0.60;0.60;;;;;;;;;;5008312;28;20477;-73
2022/11/25 05:30:52;;;;;;;0.80;0.80;;;;;;;;;;5012357;28;20479;-74
2022/11/25 05:33:20;;;;;;;0.70;0.70;;;;;;;;;;5026383;28;20515;-74
2022/11/25 05:35:53;;;;;;;0.60;0.60;;;;;;;;;;5025811;28;20803;-77
2022/11/25 05:38:22;;;;;;;0.70;0.70;;;;;;;;;;4996427;28;20542;-74
2022/11/25 05:40:50;;;;;;;0.60;0.60;;;;;;;;;;5027435;28;20993;-74
2022/11/25 05:43:18;;;;;;;0.60;0.60;;;;;;;;;;5026171;28;20569;-75
2022/11/25 05:45:46;;;;;;;0.60;0.60;;;;;;;;;;5026691;28;20542;-75
2022/11/25 05:48:13;;;;;;;0.70;0.70;;;;;;;;;;5001529;28;21013;-75
2022/11/25 05:50:41;;;;;;;0.60;0.57;;;;;;;;;;5026541;28;20456;-75
2022/11/25 05:53:17;;;;;;;0.60;0.60;;;;;;;;;;4998992;28;20555;-77
2022/11/25 05:55:52;;;;;;;0.60;0.60;;;;;;;;;;5022782;28;20441;-76
2022/11/25 05:58:29;;;;;;;0.60;0.60;;;;;;;;;;5017192;28;20503;-78
2022/11/25 06:00:58;;;;;;;0.60;0.53;;;;;;;;;;5002054;28;21148;-77
2022/11/25 06:03:26;;;;;;;0.60;0.60;;;;;;;;;;5007570;28;20447;-76
2022/11/25 06:05:54;;;;;;;0.60;0.60;;;;;;;;;;5028499;28;20508;-78
2022/11/25 06:08:23;;;;;;;0.60;0.60;;;;;;;;;;5027232;28;20474;-77
2022/11/25 06:10:50;;;;;;;0.60;0.50;;;;;;;;;;5011134;28;20502;-78
2022/11/25 06:13:16;;;;;;;0.70;0.70;;;;;;;;;;4998934;28;20470;-79
2022/11/25 06:15:44;;;;;;;0.60;0.60;;;;;;;;;;5006799;28;20458;-77
2022/11/25 06:18:15;;;;;;;0.60;0.60;;;;;;;;;;5009066;28;21062;-78
2022/11/25 06:20:44;;;;;;;0.60;0.60;;;;;;;;;;5009668;28;20520;-79
2022/11/25 06:23:11;;;;;;;0.60;0.60;;;;;;;;;;5026707;28;20452;-77
2022/11/25 06:25:40;;;;;;;0.60;0.60;;;;;;;;;;5003786;28;20456;-78
2022/11/25 06:28:07;;;;;;;0.60;0.60;;;;;;;;;;5023706;28;20503;-77
2022/11/25 06:30:42;;;;;;;0.60;0.57;;;;;;;;;;5021047;28;21161;-78
2022/11/25 06:33:16;;;;;;;0.60;0.50;;;;;;;;;;5010821;28;20540;-78
2022/11/25 06:35:44;;;;;;;0.60;0.60;;;;;;;;;;5009040;28;20458;-77
2022/11/25 06:38:11;;;;;;;1.27;1.17;;;;;;;;;;5008342;28;20503;-78
2022/11/25 06:40:38;;;;;;;0.60;0.60;;;;;;;;;;5007420;28;20497;-78
2022/11/25 06:43:09;;;;;;;0.70;0.70;;;;;;;;;;5012277;28;20516;-77
2022/11/25 06:45:36;;;;;;;0.60;0.50;;;;;;;;;;5012790;28;20535;-76
2022/11/25 06:48:03;;;;;;;0.60;0.50;;;;;;;;;;5006306;28;20455;-76
2022/11/25 06:50:31;;;;;;;0.60;0.50;;;;;;;;;;5013189;28;20471;-77
2022/11/25 06:53:20;;;;;;;0.60;0.50;;;;;;;;;;5027366;28;20459;-77
2022/11/25 06:56:00;;;;;;;0.60;0.60;;;;;;;;;;5030994;28;20464;-78
2022/11/25 06:58:29;;;;;;;0.87;0.80;;;;;;;;;;5014673;28;20463;-77
2022/11/25 07:01:02;;;;;;;0.63;0.63;;;;;;;;;;5013895;28;20564;-77
2022/11/25 07:03:30;;;;;;;1.57;1.47;;;;;;;;;;5005584;28;20490;-77
2022/11/25 07:05:57;;;;;;;0.60;0.50;;;;;;;;;;5015165;28;20456;-76
2022/11/25 07:08:24;;;;;;;0.60;0.60;;;;;;;;;;5015682;28;20918;-75
2022/11/25 07:11:01;;;;;;;0.60;0.50;;;;;;;;;;5028626;28;20586;-77
2022/11/25 07:13:30;;;;;;;0.60;0.60;;;;;;;;;;5029797;28;20472;-76
2022/11/25 07:15:59;;;;;;;0.60;0.60;;;;;;;;;;5029520;28;20462;-77
2022/11/25 07:18:27;;;;;;;0.60;0.50;;;;;;;;;;5014782;28;20499;-77
2022/11/25 07:20:54;;;;;;;0.60;0.60;;;;;;;;;;5003021;28;20457;-78
2022/11/25 07:23:21;;;;;;;0.60;0.60;;;;;;;;;;4992014;28;20791;-77
2022/11/25 07:25:49;;;;;;;0.60;0.60;;;;;;;;;;5030501;28;20506;-77
2022/11/25 07:28:16;;;;;;;0.60;0.60;;;;;;;;;;4992852;28;20456;-77
2022/11/25 07:30:44;;;;;;;1.67;1.57;;;;;;;;;;5029906;28;20452;-78
2022/11/25 07:33:32;;;;;;;0.60;0.60;;;;;;;;;;5012745;28;21172;-77
2022/11/25 07:36:00;;;;;;;0.60;0.50;;;;;;;;;;5000796;28;20444;-77
2022/11/25 07:38:29;;;;;;;0.90;0.90;;;;;;;;;;5013404;28;20436;-79
2022/11/25 07:41:01;;;;;;;0.60;0.60;;;;;;;;;;5012301;28;20443;-78
2022/11/25 07:43:28;;;;;;;0.70;0.70;;;;;;;;;;5013544;28;20469;-77
2022/11/25 07:46:06;;;;;;;0.70;0.70;;;;;;;;;;5029070;28;20454;-77
2022/11/25 07:48:34;;;;;;;0.70;0.70;;;;;;;;;;5028936;28;20773;-78
2022/11/25 07:51:00;;;;;;;0.60;0.60;;;;;;;;;;5029040;28;20476;-78
2022/11/25 07:53:27;;;;;;;0.60;0.60;;;;;;;;;;5001025;28;21014;-77
2022/11/25 07:55:54;;;;;;;0.60;0.60;;;;;;;;;;4987108;28;20466;-78
2022/11/25 07:58:21;;;;;;;0.70;0.70;;;;;;;;;;5010420;28;20800;-77
2022/11/25 08:00:48;;;;;;;0.63;0.60;;;;;;;;;;5010104;28;20458;-77
2022/11/25 08:03:16;;;;;;;0.60;0.60;;;;;;;;;;5014343;28;20426;-76
2022/11/25 08:05:43;;;;;;;0.60;0.60;;;;;;;;;;5027419;28;20444;-76
2022/11/25 08:08:10;;;;;;;0.60;0.50;;;;;;;;;;5003599;28;20489;-77
2022/11/25 08:10:38;;;;;;;1.23;1.13;;;;;;;;;;5012741;28;20478;-77
2022/11/25 08:13:05;;;;;;;0.60;0.60;;;;;;;;;;5013563;28;20970;-76
2022/11/25 08:15:32;;;;;;;0.60;0.50;;;;;;;;;;5027775;28;20539;-78
2022/11/25 08:17:59;;;;;;;0.60;0.60;;;;;;;;;;5011959;28;20439;-76
2022/11/25 08:20:30;;;;;;;0.80;0.80;;;;;;;;;;5012110;28;20524;-77
2022/11/25 08:22:57;;;;;;;0.60;0.50;;;;;;;;;;4998983;28;20464;-76
2022/11/25 08:25:25;;;;;;;0.60;0.50;;;;;;;;;;4991382;28;20442;-76
2022/11/25 08:27:52;;;;;;;0.60;0.53;;;;;;;;;;5012958;28;20495;-76
2022/11/25 08:30:20;;;;;;;0.60;0.60;;;;;;;;;;5004406;28;20475;-76
2022/11/25 08:32:47;;;;;;;0.70;0.70;;;;;;;;;;5013377;28;20441;-77
2022/11/25 08:35:14;;;;;;;0.60;0.50;;;;;;;;;;5012231;28;20494;-77
2022/11/25 08:37:42;;;;;;;0.60;0.50;;;;;;;;;;5006964;28;20449;-77
2022/11/25 08:40:10;;;;;;;0.60;0.50;;;;;;;;;;5000269;28;20459;-78
2022/11/25 08:42:37;;;;;;;0.60;0.50;;;;;;;;;;5028731;28;20829;-77
2022/11/25 08:45:04;;;;;;;0.70;0.70;;;;;;;;;;5028850;28;20459;-76
2022/11/25 08:47:35;;;;;;;0.80;0.80;;;;;;;;;;5013968;28;20830;-76
2022/11/25 08:50:04;;;;;;;0.60;0.50;;;;;;;;;;5003783;28;20937;-76
2022/11/25 08:52:31;;;;;;;0.60;0.53;;;;;;;;;;5018594;28;20446;-77
2022/11/25 08:55:00;;;;;;;0.60;0.60;;;;;;;;;;5013063;28;20437;-77
2022/11/25 08:57:26;;;;;;;0.60;0.60;;;;;;;;;;5028415;28;20433;-76
2022/11/25 09:00:14;;;;;;;0.60;0.60;;;;;;;;;;5019078;28;20440;-76
2022/11/25 09:02:41;;;;;;;0.60;0.60;;;;;;;;;;5006812;28;20455;-76
2022/11/25 09:05:10;;;;;;;0.60;0.50;;;;;;;;;;4985698;28;20940;-76
2022/11/25 09:07:36;;;;;;;0.60;0.60;;;;;;;;;;5009175;28;20517;-77
2022/11/25 09:10:05;;;;;;;0.60;0.60;;;;;;;;;;5011072;28;20478;-76
2022/11/25 09:12:32;;;;;;;0.70;0.70;;;;;;;;;;4994353;28;20535;-77
2022/11/25 09:14:59;;;;;;;0.70;0.70;;;;;;;;;;5026648;28;20960;-76
2022/11/25 09:17:27;;;;;;;0.60;0.60;;;;;;;;;;5006470;28;20462;-78
2022/11/25 09:19:53;;;;;;;0.70;0.70;;;;;;;;;;5025810;28;20963;-77
2022/11/25 09:22:20;;;;;;;0.60;0.60;;;;;;;;;;5021475;28;20504;-77
2022/11/25 09:24:49;;;;;;;0.60;0.60;;;;;;;;;;5027756;28;20993;-76
2022/11/25 09:27:17;;;;;;;0.60;0.50;;;;;;;;;;4983396;28;20445;-76
2022/11/25 09:29:44;;;;;;;0.60;0.50;;;;;;;;;;5009876;28;20566;-77
2022/11/25 09:32:11;;;;;;;0.67;0.67;;;;;;;;;;5009386;28;20818;-76
2022/11/25 09:34:37;;;;;;;0.60;0.50;;;;;;;;;;5027087;28;20450;-76
2022/11/25 09:37:04;;;;;;;0.60;0.60;;;;;;;;;;5027896;28;20452;-76
2022/11/25 09:39:33;;;;;;;0.60;0.50;;;;;;;;;;4979472;28;20830;-77
2022/11/25 09:48:02;;;;;;;0.60;0.50;;;;;;;;;;5011450;28;20496;-77
2022/11/25 09:50:34;;;;;;;0.70;0.70;;;;;;;;;;4999228;28;20469;-76
2022/11/25 09:53:05;;;;;;;0.60;0.60;;;;;;;;;;5026202;28;20548;-76
2022/11/25 09:55:34;;;;;;;0.60;0.50;;;;;;;;;;5007648;28;20985;-76
2022/11/25 09:58:05;;;;;;;0.60;0.60;;;;;;;;;;5024311;28;20842;-77
2022/11/25 10:00:36;;;;;;;0.70;0.70;;;;;;;;;;5024247;28;20461;-77
2022/11/25 10:03:05;;;;;;;0.60;0.60;;;;;;;;;;5017912;28;20440;-76
2022/11/25 10:05:35;;;;;;;0.70;0.70;;;;;;;;;;5007857;28;20993;-75
2022/11/25 10:08:06;;;;;;;0.80;0.73;;;;;;;;;;5006824;28;20547;-76
2022/11/25 10:10:36;;;;;;;0.70;0.70;;;;;;;;;;5010826;28;20470;-77
2022/11/25 10:13:04;;;;;;;0.60;0.60;;;;;;;;;;5001165;28;20791;-75
2022/11/25 10:15:33;;;;;;;0.60;0.60;;;;;;;;;;5027552;28;20960;-74
2022/11/25 10:18:03;;;;;;;1.47;1.37;;;;;;;;;;5027482;28;20547;-75
2022/11/25 10:20:52;;;;;;;0.70;0.70;;;;;;;;;;5007615;28;20519;-76
2022/11/25 10:23:21;;;;;;;1.33;1.00;;;;;;;;;;5024989;28;20484;-75
2022/11/25 10:25:55;;;;;;;0.70;0.70;;;;;;;;;;5001936;28;20452;-76
2022/11/25 10:28:23;;;;;;;0.70;0.70;;;;;;;;;;5002441;28;20821;-75
2022/11/25 10:30:53;;;;;;;0.60;0.60;;;;;;;;;;5010018;28;21380;-74
2022/11/25 10:33:23;;;;;;;0.60;0.60;;;;;;;;;;5024352;28;20501;-74
2022/11/25 10:35:52;;;;;;;0.70;0.70;;;;;;;;;;5012235;28;20446;-75
2022/11/25 10:38:23;;;;;;;0.70;0.60;;;;;;;;;;5004511;28;20457;-74
2022/11/25 10:40:52;;;;;;;0.60;0.60;;;;;;;;;;5010816;28;20434;-76
2022/11/25 10:43:19;;;;;;;0.70;0.70;;;;;;;;;;5024791;28;20461;-77
2022/11/25 10:45:48;;;;;;;0.70;0.60;;;;;;;;;;5026440;28;20493;-76
2022/11/25 10:48:19;;;;;;;0.70;0.70;;;;;;;;;;5010036;28;20431;-74
2022/11/25 10:50:54;;;;;;;0.70;0.70;;;;;;;;;;5024985;28;20500;-76
2022/11/25 10:53:23;;;;;;;0.70;0.60;;;;;;;;;;5002040;28;20531;-74
2022/11/25 10:55:57;;;;;;;0.70;0.70;;;;;;;;;;5004496;28;20456;-75
2022/11/25 10:58:26;;;;;;;0.70;0.60;;;;;;;;;;5002928;28;20472;-76
2022/11/25 11:01:00;;;;;;;0.70;0.70;;;;;;;;;;5010328;28;20475;-75
2022/11/25 11:03:28;;;;;;;0.70;0.70;;;;;;;;;;5010703;28;20916;-76
2022/11/25 11:05:56;;;;;;;0.73;0.70;;;;;;;;;;5008565;28;20444;-74
2022/11/25 11:08:24;;;;;;;0.70;0.70;;;;;;;;;;5010784;28;20447;-77
2022/11/25 11:11:15;;;;;;;0.70;0.70;;;;;;;;;;5009431;28;20520;-75
2022/11/25 11:13:43;;;;;;;0.70;0.70;;;;;;;;;;5025462;28;20503;-76
2022/11/25 11:16:28;;;;;;;0.70;0.70;;;;;;;;;;4998745;28;20480;-74
2022/11/25 11:18:55;;;;;;;0.70;0.60;;;;;;;;;;5025748;28;20467;-76
2022/11/25 11:21:28;;;;;;;0.70;0.60;;;;;;;;;;4999420;28;20456;-75
2022/11/25 11:23:56;;;;;;;0.70;0.70;;;;;;;;;;5021979;28;20527;-75
2022/11/25 11:26:24;;;;;;;0.70;0.70;;;;;;;;;;5025392;28;21061;-74
2022/11/25 11:29:03;;;;;;;0.70;0.70;;;;;;;;;;5009992;28;20530;-74
2022/11/25 11:31:43;;;;;;;0.70;0.70;;;;;;;;;;5008237;28;20806;-75
2022/11/25 11:34:21;;;;;;;67.70;2.27;;;;;;;;;;5012216;28;20436;-76
2022/11/25 11:36:55;;;;;;;0.70;0.60;;;;;;;;;;5029135;28;20433;-75
2022/11/25 11:39:42;;;;;;;0.70;0.60;;;;;;;;;;5014848;28;20797;-77
2022/11/25 11:42:13;;;;;;;0.80;0.80;;;;;;;;;;5014031;28;20489;-76
2022/11/25 11:44:50;;;;;;;0.70;0.70;;;;;;;;;;4986952;28;20461;-76
2022/11/25 11:47:22;;;;;;;0.70;0.70;;;;;;;;;;5007714;28;20457;-75
2022/11/25 11:50:07;;;;;;;0.70;0.70;;;;;;;;;;5013410;28;20473;-76
2022/11/25 11:52:42;;;;;;;0.80;0.80;;;;;;;;;;5014883;28;20453;-73
2022/11/25 11:55:16;;;;;;;0.70;0.70;;;;;;;;;;5029543;28;20529;-75
2022/11/25 11:57:45;;;;;;;0.70;0.60;;;;;;;;;;5005330;28;20452;-77
2022/11/25 12:00:15;;;;;;;0.70;0.70;;;;;;;;;;5026059;28;20498;-76
2022/11/25 12:02:50;;;;;;;0.93;0.90;;;;;;;;;;4990778;28;20570;-75
2022/11/25 12:05:20;;;;;;;0.70;0.70;;;;;;;;;;5009726;28;20532;-77
2022/11/25 12:08:12;;;;;;;0.70;0.70;;;;;;;;;;5012605;28;20439;-75
2022/11/25 12:10:41;;;;;;;0.70;0.70;;;;;;;;;;5012466;28;20842;-77
2022/11/25 12:13:13;;;;;;;0.70;0.70;;;;;;;;;;5004626;28;20456;-75
2022/11/25 12:15:47;;;;;;;1.10;1.03;;;;;;;;;;5029239;28;20545;-77
2022/11/25 12:18:18;;;;;;;0.70;0.70;;;;;;;;;;5028559;28;20429;-77
2022/11/25 12:20:48;;;;;;;0.70;0.60;;;;;;;;;;5014349;28;20926;-74
2022/11/25 12:23:20;;;;;;;0.70;0.70;;;;;;;;;;5025160;28;20481;-75
2022/11/25 12:25:50;;;;;;;0.70;0.70;;;;;;;;;;5004053;28;20470;-77
2022/11/25 12:28:21;;;;;;;0.70;0.70;;;;;;;;;;5013624;28;20462;-78
2022/11/25 12:30:55;;;;;;;0.70;0.60;;;;;;;;;;5027003;28;20485;-78
2022/11/25 12:33:36;;;;;;;0.70;0.60;;;;;;;;;;5007042;28;20465;-76
2022/11/25 12:36:05;;;;;;;0.70;0.70;;;;;;;;;;5013320;28;20824;-77
2022/11/25 12:38:36;;;;;;;0.93;0.83;;;;;;;;;;5013284;28;20925;-77
2022/11/25 12:41:29;;;;;;;0.80;0.80;;;;;;;;;;5007188;28;20450;-75
2022/11/25 12:43:59;;;;;;;0.80;0.80;;;;;;;;;;5008853;28;21020;-77
2022/11/25 12:46:32;;;;;;;0.70;0.70;;;;;;;;;;5005770;28;20448;-76
2022/11/25 12:49:00;;;;;;;1.03;0.93;;;;;;;;;;5025575;28;20449;-76
2022/11/25 12:51:32;;;;;;;0.70;0.70;;;;;;;;;;5003654;28;20497;-76
2022/11/25 12:54:05;;;;;;;0.80;0.80;;;;;;;;;;5024817;28;20455;-77
2022/11/25 12:56:42;;;;;;;0.70;0.70;;;;;;;;;;5007509;28;20444;-77
2022/11/25 12:59:23;;;;;;;0.70;0.60;;;;;;;;;;5027571;28;20509;-78
2022/11/25 13:02:03;;;;;;;0.80;0.80;;;;;;;;;;5009828;28;20891;-76
2022/11/25 13:04:58;;;;;;;0.73;0.73;;;;;;;;;;5010169;28;20550;-78
2022/11/25 13:07:52;;;;;;;0.80;0.80;;;;;;;;;;5021426;28;20438;-75
2022/11/25 13:10:28;;;;;;;0.80;0.80;;;;;;;;;;5013221;28;20460;-76
2022/11/25 13:13:05;;;;;;;0.70;0.70;;;;;;;;;;5009655;28;20855;-75
2022/11/25 13:15:36;;;;;;;0.70;0.60;;;;;;;;;;5027631;28;20810;-74
2022/11/25 13:18:10;;;;;;;0.70;0.70;;;;;;;;;;5012024;28;20904;-74
2022/11/25 13:20:42;;;;;;;0.70;0.70;;;;;;;;;;5013143;28;20418;-75
2022/11/25 13:23:27;;;;;;;0.70;0.70;;;;;;;;;;5011727;28;20459;-75
2022/11/25 13:26:08;;;;;;;0.70;0.60;;;;;;;;;;4997761;28;20434;-75
2022/11/25 13:28:40;;;;;;;0.70;0.60;;;;;;;;;;5000652;28;20476;-75
2022/11/25 13:31:18;;;;;;;1.20;1.10;;;;;;;;;;5009601;28;20554;-74
2022/11/25 13:34:02;;;;;;;0.70;0.60;;;;;;;;;;5011290;28;20441;-74
2022/11/25 13:36:43;;;;;;;0.80;0.80;;;;;;;;;;5027169;28;20547;-72
2022/11/25 13:39:12;;;;;;;0.70;0.60;;;;;;;;;;4998200;28;20809;-76
2022/11/25 13:41:42;;;;;;;0.80;0.80;;;;;;;;;;5028354;28;20946;-77
2022/11/25 13:44:17;;;;;;;0.70;0.70;;;;;;;;;;5026185;28;20462;-78
2022/11/25 13:46:45;;;;;;;0.77;0.77;;;;;;;;;;5023961;28;20451;-77
2022/11/25 13:49:23;;;;;;;0.80;0.80;;;;;;;;;;5009403;28;20559;-75
2022/11/25 13:51:52;;;;;;;0.80;0.80;;;;;;;;;;5000617;28;20469;-76
2022/11/25 13:54:22;;;;;;;0.70;0.70;;;;;;;;;;5006208;28;20437;-76
2022/11/25 13:57:12;;;;;;;0.70;0.70;;;;;;;;;;5012220;28;20495;-75
2022/11/25 13:59:48;;;;;;;0.70;0.70;;;;;;;;;;5011948;28;20935;-76
2022/11/25 14:02:34;;;;;;;0.90;0.90;;;;;;;;;;5004250;28;20430;-76
2022/11/25 14:05:10;;;;;;;0.70;0.70;;;;;;;;;;5007687;28;20433;-77
2022/11/25 14:07:41;;;;;;;0.70;0.70;;;;;;;;;;5002233;28;20805;-75
2022/11/25 14:10:18;;;;;;;1.17;1.10;;;;;;;;;;5027805;28;20437;-75
2022/11/25 14:12:59;;;;;;;0.90;0.90;;;;;;;;;;5001847;28;20445;-76
2022/11/25 14:15:35;;;;;;;0.80;0.80;;;;;;;;;;5024076;28;20491;-76
2022/11/25 14:18:21;;;;;;;0.90;0.90;;;;;;;;;;4986685;28;20463;-78
2022/11/25 14:21:14;;;;;;;0.70;0.70;;;;;;;;;;5005751;28;20592;-78
2022/11/25 14:23:46;;;;;;;0.70;0.60;;;;;;;;;;5009279;28;20790;-77
2022/11/25 14:26:24;;;;;;;0.80;0.80;;;;;;;;;;5002850;28;20465;-76
2022/11/25 14:29:14;;;;;;;0.70;0.70;;;;;;;;;;5000558;28;20485;-76
2022/11/25 14:31:44;;;;;;;0.80;0.80;;;;;;;;;;5026913;28;20573;-75
2022/11/25 14:34:13;;;;;;;0.70;0.70;;;;;;;;;;5024959;28;20647;-75
2022/11/25 14:36:41;;;;;;;0.80;0.80;;;;;;;;;;5004357;28;20436;-76
2022/11/25 14:39:12;;;;;;;0.93;0.93;;;;;;;;;;5008510;28;20456;-76
2022/11/25 14:41:41;;;;;;;0.70;0.70;;;;;;;;;;5021959;28;20426;-75
2022/11/25 14:44:11;;;;;;;0.70;0.70;;;;;;;;;;5022623;28;20567;-76
2022/11/25 14:46:50;;;;;;;0.70;0.60;;;;;;;;;;5010251;28;20441;-76
2022/11/25 14:49:18;;;;;;;0.80;0.77;;;;;;;;;;5007906;28;20445;-75
2022/11/25 14:52:05;;;;;;;0.70;0.70;;;;;;;;;;4997799;28;20461;-76
2022/11/25 14:54:38;;;;;;;0.70;0.70;;;;;;;;;;5011434;28;20439;-76
2022/11/25 14:57:06;;;;;;;0.73;0.70;;;;;;;;;;5019113;28;20440;-76
2022/11/25 14:59:34;;;;;;;0.70;0.70;;;;;;;;;;5006185;28;20505;-77
2022/11/25 15:02:04;;;;;;;0.90;0.90;;;;;;;;;;4990050;28;20453;-76
2022/11/25 15:04:31;;;;;;;0.70;0.70;;;;;;;;;;5026547;28;20460;-75
2022/11/25 15:07:01;;;;;;;0.70;0.63;;;;;;;;;;5009643;28;20767;-76
2022/11/25 15:09:29;;;;;;;0.70;0.70;;;;;;;;;;5015282;28;20517;-76
2022/11/25 15:11:57;;;;;;;0.70;0.70;;;;;;;;;;5011839;28;20472;-74
2022/11/25 15:14:26;;;;;;;1.00;0.90;;;;;;;;;;5023857;28;20572;-78
2022/11/25 15:16:54;;;;;;;1.20;1.10;;;;;;;;;;5009207;28;20484;-76
2022/11/25 15:19:23;;;;;;;0.77;0.77;;;;;;;;;;5026769;28;20437;-76
2022/11/25 15:21:59;;;;;;;1.47;1.30;;;;;;;;;;5028471;28;20449;-76